createdAt,value
2018-10-19T00:00:05.934Z,63.80
2018-10-19T00:02:34.027Z,63.81
2018-10-19T00:05:02.151Z,63.69
2018-10-19T00:07:30.200Z,63.81
2018-10-19T00:09:58.286Z,63.88
2018-10-19T00:12:26.370Z,63.84
2018-10-19T00:14:54.445Z,63.93
2018-10-19T00:17:22.549Z,64.00
2018-10-19T00:19:50.620Z,64.00
2018-10-19T00:22:18.700Z,63.92
2018-10-19T00:24:46.768Z,64.01
2018-10-19T00:27:14.899Z,63.97
2018-10-19T00:29:43.214Z,64.04
2018-10-19T00:32:11.371Z,64.15
2018-10-19T00:34:39.451Z,64.27
2018-10-19T00:37:07.556Z,64.34
2018-10-19T00:39:35.627Z,64.31
2018-10-19T00:42:03.709Z,64.28
2018-10-19T00:44:31.788Z,64.29
2018-10-19T00:46:59.915Z,64.26
2018-10-19T00:49:27.942Z,64.34
2018-10-19T00:51:56.023Z,64.33
2018-10-19T00:54:24.091Z,64.23
2018-10-19T00:56:52.175Z,64.37
2018-10-19T00:59:20.239Z,64.46
2018-10-19T01:01:48.308Z,64.36
2018-10-19T01:04:16.393Z,64.33
2018-10-19T01:06:44.474Z,64.25
2018-10-19T01:09:12.593Z,64.23
2018-10-19T01:11:40.656Z,64.32
2018-10-19T01:14:08.752Z,64.39
2018-10-19T01:16:36.837Z,64.51
2018-10-19T01:19:04.954Z,64.42
2018-10-19T01:21:33.035Z,64.33
2018-10-19T01:24:01.127Z,64.30
2018-10-19T01:26:29.215Z,64.22
2018-10-19T01:28:57.322Z,64.14
2018-10-19T01:31:25.397Z,64.12
2018-10-19T01:33:53.591Z,64.02
2018-10-19T01:36:25.974Z,63.99
2018-10-19T01:38:54.392Z,63.89
2018-10-19T01:41:22.731Z,63.72
2018-10-19T01:43:50.586Z,63.63
2018-10-19T01:46:18.658Z,63.81
2018-10-19T01:48:46.760Z,63.69
2018-10-19T01:51:14.859Z,63.62
2018-10-19T01:53:42.931Z,63.66
2018-10-19T01:56:11.012Z,63.72
2018-10-19T01:58:39.104Z,63.79
2018-10-19T02:01:07.212Z,63.86
2018-10-19T02:03:35.354Z,63.82
2018-10-19T02:06:03.442Z,63.92
2018-10-19T02:08:31.535Z,63.97
2018-10-19T02:10:59.662Z,63.87
2018-10-19T02:13:27.849Z,63.73
2018-10-19T02:15:55.936Z,63.56
2018-10-19T02:18:24.038Z,63.45
2018-10-19T02:20:52.115Z,63.45
2018-10-19T02:23:20.251Z,63.46
2018-10-19T02:25:48.342Z,63.41
2018-10-19T02:28:16.431Z,63.42
2018-10-19T02:30:44.584Z,63.35
2018-10-19T02:33:12.699Z,63.29
2018-10-19T02:35:40.740Z,63.34
2018-10-19T02:38:08.869Z,63.44
2018-10-19T02:40:37.077Z,63.38
2018-10-19T02:43:05.644Z,63.36
2018-10-19T02:45:34.680Z,63.40
2018-10-19T02:48:03.354Z,63.56
2018-10-19T02:50:31.434Z,63.71
2018-10-19T02:52:59.552Z,63.79
2018-10-19T02:55:27.616Z,63.90
2018-10-19T02:57:55.696Z,63.96
2018-10-19T03:00:23.774Z,64.02
2018-10-19T03:02:51.848Z,64.14
2018-10-19T03:05:19.997Z,64.17
2018-10-19T03:07:48.070Z,64.19
2018-10-19T03:10:16.187Z,64.17
2018-10-19T03:12:44.269Z,64.27
2018-10-19T03:15:12.450Z,64.31
2018-10-19T03:17:40.454Z,64.36
2018-10-19T03:20:09.228Z,64.46
2018-10-19T03:22:37.908Z,64.47
2018-10-19T03:25:06.296Z,64.46
2018-10-19T03:27:34.459Z,64.50
2018-10-19T03:30:02.568Z,64.62
2018-10-19T03:32:30.654Z,64.67
2018-10-19T03:34:58.792Z,64.71
2018-10-19T03:37:26.918Z,64.69
2018-10-19T03:39:54.998Z,64.84
2018-10-19T03:42:23.130Z,65.02
2018-10-19T03:44:51.236Z,65.09
2018-10-19T03:47:19.376Z,65.33
2018-10-19T03:49:47.409Z,65.51
2018-10-19T03:52:15.503Z,65.63
2018-10-19T03:54:43.628Z,65.73
2018-10-19T03:57:11.778Z,65.75
2018-10-19T03:59:39.953Z,65.75
2018-10-19T04:02:08.080Z,65.75
2018-10-19T04:04:36.171Z,65.90
2018-10-19T04:07:04.459Z,66.00
2018-10-19T04:09:32.580Z,65.94
2018-10-19T04:12:00.670Z,65.93
2018-10-19T04:14:29.107Z,65.94
2018-10-19T04:16:57.212Z,66.00
2018-10-19T04:19:25.250Z,66.01
2018-10-19T04:21:53.362Z,66.06
2018-10-19T04:24:21.447Z,66.11
2018-10-19T04:26:49.525Z,66.28
2018-10-19T04:29:17.630Z,66.22
2018-10-19T04:31:45.675Z,66.34
2018-10-19T04:34:13.796Z,66.41
2018-10-19T04:36:41.874Z,66.46
2018-10-19T04:39:10.497Z,66.45
2018-10-19T04:41:38.925Z,66.50
2018-10-19T04:44:07.062Z,66.47
2018-10-19T04:46:35.354Z,66.39
2018-10-19T04:49:03.724Z,66.34
2018-10-19T04:51:31.905Z,66.27
2018-10-19T04:54:00.095Z,66.19
2018-10-19T04:56:28.186Z,66.08
2018-10-19T04:58:56.264Z,65.96
2018-10-19T05:01:24.326Z,65.83
2018-10-19T05:03:52.411Z,65.71
2018-10-19T05:06:20.573Z,65.65
2018-10-19T05:08:48.665Z,65.60
2018-10-19T05:11:16.807Z,65.55
2018-10-19T05:13:44.839Z,65.51
2018-10-19T05:16:12.910Z,65.27
2018-10-19T05:18:41.135Z,65.11
2018-10-19T05:21:09.211Z,64.96
2018-10-19T05:23:37.297Z,64.88
2018-10-19T05:26:05.898Z,64.79
2018-10-19T05:28:33.969Z,64.72
2018-10-19T05:31:02.130Z,64.62
2018-10-19T05:33:30.222Z,65.16
2018-10-19T05:35:58.291Z,65.62
2018-10-19T05:38:26.457Z,65.72
2018-10-19T05:40:54.541Z,66.03
2018-10-19T05:43:22.613Z,65.82
2018-10-19T05:45:50.672Z,65.65
2018-10-19T05:48:18.757Z,65.48
2018-10-19T05:50:46.824Z,65.55
2018-10-19T05:53:14.962Z,65.95
2018-10-19T05:55:43.210Z,65.87
2018-10-19T05:58:11.342Z,65.99
2018-10-19T06:00:39.407Z,65.73
2018-10-19T06:03:07.510Z,65.77
2018-10-19T06:05:35.664Z,65.48
2018-10-19T06:08:03.763Z,65.28
2018-10-19T06:10:31.895Z,65.29
2018-10-19T06:12:59.947Z,65.04
2018-10-19T06:15:28.041Z,64.97
2018-10-19T06:17:56.231Z,64.99
2018-10-19T06:20:24.329Z,65.23
2018-10-19T06:22:52.639Z,65.27
2018-10-19T06:25:20.768Z,65.44
2018-10-19T06:27:48.863Z,65.71
2018-10-19T06:30:16.952Z,65.82
2018-10-19T06:32:45.038Z,65.85
2018-10-19T06:35:13.172Z,65.83
2018-10-19T06:37:41.223Z,65.79
2018-10-19T06:40:09.315Z,65.81
2018-10-19T06:42:37.400Z,65.68
2018-10-19T06:45:06.213Z,65.59
2018-10-19T06:47:34.299Z,65.50
2018-10-19T06:50:02.499Z,65.32
2018-10-19T06:52:30.575Z,65.27
2018-10-19T06:54:58.668Z,65.13
2018-10-19T06:57:26.767Z,65.05
2018-10-19T06:59:54.911Z,65.04
2018-10-19T07:02:22.993Z,64.86
2018-10-19T07:04:51.088Z,64.82
2018-10-19T07:07:19.177Z,64.76
2018-10-19T07:09:47.317Z,64.85
2018-10-19T07:12:15.495Z,64.87
2018-10-19T07:14:43.491Z,64.89
2018-10-19T07:17:11.620Z,64.89
2018-10-19T07:19:39.640Z,64.81
2018-10-19T07:22:07.723Z,64.88
2018-10-19T07:24:36.064Z,64.92
2018-10-19T07:27:04.365Z,65.02
2018-10-19T07:29:32.535Z,65.05
2018-10-19T07:32:00.569Z,65.23
2018-10-19T07:34:28.646Z,65.39
2018-10-19T07:36:56.732Z,65.49
2018-10-19T07:39:24.847Z,65.48
2018-10-19T07:41:52.991Z,65.42
2018-10-19T07:44:21.012Z,65.34
2018-10-19T07:46:49.098Z,65.22
2018-10-19T07:49:17.260Z,65.14
2018-10-19T07:51:45.347Z,65.34
2018-10-19T07:54:13.445Z,65.40
2018-10-19T07:56:41.539Z,65.26
2018-10-19T07:59:09.690Z,65.16
2018-10-19T08:01:37.722Z,65.04
2018-10-19T08:04:05.916Z,64.88
2018-10-19T08:06:34.004Z,64.70
2018-10-19T08:09:02.088Z,64.65
2018-10-19T08:11:30.243Z,64.65
2018-10-19T08:13:58.293Z,64.59
2018-10-19T08:16:26.335Z,64.52
2018-10-19T08:18:54.442Z,64.37
2018-10-19T08:21:22.528Z,64.23
2018-10-19T08:23:50.599Z,64.09
2018-10-19T08:26:18.824Z,63.92
2018-10-19T08:28:46.828Z,63.73
2018-10-19T08:31:14.904Z,63.50
2018-10-19T08:33:42.984Z,63.35
2018-10-19T08:36:11.068Z,63.17
2018-10-19T08:38:39.163Z,63.03
2018-10-19T08:41:07.301Z,63.09
2018-10-19T08:43:35.478Z,63.03
2018-10-19T08:46:08.860Z,63.08
2018-10-19T08:48:37.000Z,63.11
2018-10-19T08:51:05.305Z,63.22
2018-10-19T08:53:33.676Z,63.24
2018-10-19T08:56:01.628Z,63.32
2018-10-19T08:58:29.903Z,63.39
2018-10-19T09:00:57.970Z,63.65
2018-10-19T09:03:26.083Z,63.93
2018-10-19T09:05:54.203Z,64.11
2018-10-19T09:08:22.242Z,64.15
2018-10-19T09:10:50.397Z,64.35
2018-10-19T09:13:18.488Z,64.49
2018-10-19T09:15:46.556Z,64.41
2018-10-19T09:18:14.636Z,64.47
2018-10-19T09:20:42.721Z,64.44
2018-10-19T09:23:10.871Z,64.30
2018-10-19T09:25:38.944Z,64.29
2018-10-19T09:28:07.030Z,64.21
2018-10-19T09:30:35.231Z,64.26
2018-10-19T09:33:03.335Z,64.17
2018-10-19T09:35:31.433Z,64.14
2018-10-19T09:37:59.480Z,63.99
2018-10-19T09:40:27.739Z,63.89
2018-10-19T09:42:55.905Z,63.77
2018-10-19T09:45:23.943Z,63.37
2018-10-19T09:47:52.031Z,63.41
2018-10-19T09:50:20.115Z,63.48
2018-10-19T09:52:48.195Z,63.39
2018-10-19T09:55:16.423Z,63.29
2018-10-19T09:57:44.461Z,63.00
2018-10-19T10:00:18.309Z,62.77
2018-10-19T10:02:46.945Z,62.69
2018-10-19T10:07:43.144Z,61.94
2018-10-19T10:10:11.207Z,61.60
2018-10-19T10:12:39.287Z,61.40
2018-10-19T10:15:07.626Z,60.80
2018-10-19T10:17:35.716Z,60.31
2018-10-19T10:20:03.824Z,60.05
2018-10-19T10:22:31.907Z,59.53
2018-10-19T10:25:00.049Z,59.03
2018-10-19T10:27:28.143Z,58.64
2018-10-19T10:29:56.246Z,58.56
2018-10-19T10:32:24.409Z,58.37
2018-10-19T10:34:52.423Z,58.28
2018-10-19T10:37:20.509Z,57.78
2018-10-19T10:39:48.603Z,57.64
2018-10-19T10:42:16.690Z,57.31
2018-10-19T10:44:44.783Z,56.95
2018-10-19T10:47:12.871Z,56.83
2018-10-19T10:49:40.967Z,56.69
2018-10-19T10:52:09.134Z,56.65
2018-10-19T10:54:37.146Z,56.38
2018-10-19T10:57:05.610Z,56.27
2018-10-19T10:59:33.726Z,56.16
2018-10-19T11:02:01.809Z,56.00
2018-10-19T11:04:29.899Z,55.79
2018-10-19T11:06:58.040Z,55.13
2018-10-19T11:09:26.072Z,55.03
2018-10-19T11:11:54.263Z,55.07
2018-10-19T11:14:22.334Z,54.98
2018-10-19T11:16:50.411Z,54.67
2018-10-19T11:19:18.494Z,54.55
2018-10-19T11:21:46.918Z,54.43
2018-10-19T11:24:14.991Z,54.24
2018-10-19T11:26:43.089Z,54.22
2018-10-19T11:29:11.155Z,54.15
2018-10-19T11:31:39.236Z,54.06
2018-10-19T11:34:07.392Z,54.16
2018-10-19T11:36:35.431Z,54.21
2018-10-19T11:39:04.279Z,53.94
2018-10-19T11:41:32.362Z,53.52
2018-10-19T11:44:00.433Z,53.32
2018-10-19T11:46:28.519Z,53.06
2018-10-19T11:48:56.698Z,52.77
2018-10-19T11:51:24.936Z,52.55
2018-10-19T11:53:52.970Z,52.22
2018-10-19T11:56:21.107Z,51.32
2018-10-19T11:58:49.179Z,51.23
2018-10-19T12:01:17.255Z,51.31
2018-10-19T12:03:45.425Z,50.39
2018-10-19T12:06:13.416Z,50.48
2018-10-19T12:08:41.503Z,50.30
2018-10-19T12:11:09.599Z,50.20
2018-10-19T12:13:37.723Z,50.16
2018-10-19T12:16:06.278Z,48.68
2018-10-19T12:18:34.318Z,49.09
2018-10-19T12:21:02.481Z,49.11
2018-10-19T12:23:30.509Z,48.67
2018-10-19T12:25:58.747Z,48.40
2018-10-19T12:28:26.788Z,48.72
2018-10-19T12:30:54.919Z,48.90
2018-10-19T12:33:22.949Z,48.66
2018-10-19T12:35:51.077Z,48.02
2018-10-19T12:38:19.166Z,47.91
2018-10-19T12:40:47.525Z,47.45
2018-10-19T12:43:15.659Z,47.65
2018-10-19T12:46:18.103Z,47.18
2018-10-19T12:48:46.312Z,47.58
2018-10-19T12:51:14.459Z,47.64
2018-10-19T12:53:42.470Z,46.56
2018-10-19T12:56:10.555Z,47.07
2018-10-19T12:58:38.654Z,47.46
2018-10-19T13:01:06.781Z,47.77
2018-10-19T13:03:34.889Z,47.82
2018-10-19T13:06:02.994Z,47.45
2018-10-19T13:08:31.128Z,47.62
2018-10-19T13:10:59.326Z,47.87
2018-10-19T13:13:27.416Z,47.68
2018-10-19T13:15:55.505Z,47.65
2018-10-19T13:18:23.792Z,47.02
2018-10-19T13:20:51.919Z,46.88
2018-10-19T13:23:20.019Z,47.62
2018-10-19T13:25:48.174Z,47.59
2018-10-19T13:28:16.802Z,47.76
2018-10-19T13:30:45.187Z,47.90
2018-10-19T13:33:13.936Z,47.95
2018-10-19T13:35:42.153Z,47.73
2018-10-19T13:38:10.273Z,47.77
2018-10-19T13:40:38.347Z,46.99
2018-10-19T13:43:06.510Z,47.44
2018-10-19T13:45:34.889Z,47.54
2018-10-19T13:48:03.020Z,47.54
2018-10-19T13:50:31.012Z,47.65
2018-10-19T13:52:59.163Z,47.71
2018-10-19T13:55:27.355Z,47.82
2018-10-19T13:57:55.921Z,47.95
2018-10-19T14:00:24.304Z,48.08
2018-10-19T14:02:52.379Z,48.16
2018-10-19T14:05:20.497Z,48.13
2018-10-19T14:07:48.566Z,48.12
2018-10-19T14:10:16.671Z,48.10
2018-10-19T14:12:44.748Z,47.56
2018-10-19T14:15:12.854Z,47.50
2018-10-19T14:17:41.627Z,47.61
2018-10-19T14:20:11.432Z,47.97
2018-10-19T14:22:39.707Z,47.97
2018-10-19T14:25:09.118Z,48.00
2018-10-19T14:27:38.528Z,47.72
2018-10-19T14:30:09.746Z,48.22
2018-10-19T14:32:38.265Z,47.92
2018-10-19T14:35:06.787Z,48.33
2018-10-19T14:37:35.426Z,47.94
2018-10-19T14:40:03.512Z,48.38
2018-10-19T14:42:31.605Z,48.48
2018-10-19T14:44:59.711Z,48.68
2018-10-19T14:47:27.894Z,48.54
2018-10-19T14:49:56.007Z,48.68
2018-10-19T14:52:24.122Z,48.53
2018-10-19T14:54:52.194Z,48.52
2018-10-19T14:57:20.297Z,48.89
2018-10-19T14:59:48.444Z,49.05
2018-10-19T15:02:16.519Z,48.99
2018-10-19T15:04:44.587Z,48.69
2018-10-19T15:07:12.683Z,48.60
2018-10-19T15:09:40.909Z,48.71
2018-10-19T15:12:09.232Z,48.73
2018-10-19T15:14:37.659Z,49.03
2018-10-19T15:17:06.226Z,49.23
2018-10-19T15:19:34.362Z,49.67
2018-10-19T15:22:02.461Z,49.88
2018-10-19T15:24:30.580Z,49.97
2018-10-19T15:26:58.804Z,50.33
2018-10-19T15:29:27.093Z,50.53
2018-10-19T15:31:55.224Z,50.34
2018-10-19T15:34:23.405Z,50.55
2018-10-19T15:36:51.488Z,50.58
2018-10-19T15:39:19.584Z,50.81
2018-10-19T15:41:47.715Z,51.05
2018-10-19T15:44:15.811Z,51.20
2018-10-19T15:46:43.895Z,51.45
2018-10-19T15:49:11.987Z,51.74
2018-10-19T15:51:40.079Z,52.05
2018-10-19T15:54:08.241Z,52.32
2018-10-19T15:56:36.366Z,52.56
2018-10-19T15:59:04.643Z,52.70
2018-10-19T16:01:32.731Z,52.89
2018-10-19T16:04:00.822Z,53.05
2018-10-19T16:06:28.923Z,53.22
2018-10-19T16:08:57.084Z,53.41
2018-10-19T16:11:25.656Z,53.65
2018-10-19T16:13:54.749Z,53.91
2018-10-19T16:16:22.963Z,54.17
2018-10-19T16:18:51.086Z,54.50
2018-10-19T16:21:19.179Z,54.97
2018-10-19T16:23:47.452Z,55.30
2018-10-19T16:26:15.561Z,55.65
2018-10-19T16:28:43.655Z,55.91
2018-10-19T16:31:11.964Z,55.96
2018-10-19T16:33:39.943Z,56.16
2018-10-19T16:36:08.128Z,56.33
2018-10-19T16:38:36.162Z,56.62
2018-10-19T16:41:04.488Z,56.92
2018-10-19T16:43:32.572Z,57.19
2018-10-19T16:46:00.662Z,57.37
2018-10-19T16:48:28.752Z,57.60
2018-10-19T16:50:56.883Z,57.70
2018-10-19T16:53:24.933Z,57.87
2018-10-19T16:55:53.104Z,57.99
2018-10-19T16:58:21.194Z,58.16
2018-10-19T17:00:49.287Z,58.32
2018-10-19T17:03:17.396Z,58.45
2018-10-19T17:05:45.458Z,58.63
2018-10-19T17:08:13.540Z,58.87
2018-10-19T17:10:41.639Z,59.16
2018-10-19T17:13:09.789Z,59.34
2018-10-19T17:15:37.879Z,59.44
2018-10-19T17:18:06.234Z,59.50
2018-10-19T17:20:34.274Z,59.62
2018-10-19T17:23:02.399Z,59.86
2018-10-19T17:25:30.565Z,60.04
2018-10-19T17:27:58.735Z,60.29
2018-10-19T17:30:26.844Z,60.45
2018-10-19T17:32:55.014Z,60.72
2018-10-19T17:35:23.000Z,60.63
2018-10-19T17:37:51.087Z,60.51
2018-10-19T17:40:19.187Z,60.44
2018-10-19T17:42:47.281Z,60.40
2018-10-19T17:45:15.522Z,60.42
2018-10-19T17:47:43.551Z,60.48
2018-10-19T17:50:12.148Z,60.47
2018-10-19T17:52:40.226Z,60.50
2018-10-19T17:55:09.614Z,60.55
2018-10-19T17:57:38.197Z,60.62
2018-10-19T18:00:07.845Z,60.77
2018-10-19T18:02:35.874Z,60.84
2018-10-19T18:05:04.059Z,60.92
2018-10-19T18:07:32.144Z,61.01
2018-10-19T18:10:00.240Z,61.13
2018-10-19T18:12:28.344Z,61.19
2018-10-19T18:14:56.473Z,61.15
2018-10-19T18:17:24.541Z,61.13
2018-10-19T18:19:52.632Z,61.15
2018-10-19T18:22:20.982Z,61.20
2018-10-19T18:24:48.798Z,61.25
2018-10-19T18:27:16.895Z,61.27
2018-10-19T18:29:44.979Z,61.31
2018-10-19T18:32:13.152Z,61.32
2018-10-19T18:34:41.156Z,61.34
2018-10-19T18:37:09.263Z,61.45
2018-10-19T18:39:38.253Z,61.49
2018-10-19T18:42:06.452Z,61.47
2018-10-19T18:44:34.538Z,61.53
2018-10-19T18:47:02.757Z,61.55
2018-10-19T18:49:30.769Z,61.54
2018-10-19T18:51:58.870Z,61.60
2018-10-19T18:54:26.959Z,61.70
2018-10-19T18:56:55.066Z,61.72
2018-10-19T18:59:23.147Z,61.82
2018-10-19T19:01:51.230Z,61.88
2018-10-19T19:04:19.323Z,61.95
2018-10-19T19:06:47.459Z,61.94
2018-10-19T19:09:15.552Z,62.01
2018-10-19T19:11:43.644Z,62.03
2018-10-19T19:14:11.802Z,61.94
2018-10-19T19:16:39.827Z,61.94
2018-10-19T19:19:07.940Z,62.00
2018-10-19T19:21:36.209Z,61.99
2018-10-19T19:24:09.767Z,61.96
2018-10-19T19:26:37.854Z,62.08
2018-10-19T19:29:06.006Z,62.15
2018-10-19T19:31:34.051Z,62.20
2018-10-19T19:34:07.534Z,62.27
2018-10-19T19:36:35.628Z,62.32
2018-10-19T19:39:04.163Z,62.31
2018-10-19T19:41:37.726Z,62.33
2018-10-19T19:44:05.844Z,62.30
2018-10-19T19:46:33.908Z,62.40
2018-10-19T19:49:07.445Z,62.35
2018-10-19T19:51:35.422Z,62.19
2018-10-19T19:54:03.525Z,62.31
2018-10-19T19:56:31.608Z,62.30
2018-10-19T19:58:59.733Z,62.24
2018-10-19T20:01:27.780Z,62.26
2018-10-19T20:03:55.879Z,62.33
2018-10-19T20:06:24.069Z,62.41
2018-10-19T20:08:52.093Z,62.45
2018-10-19T20:11:20.168Z,62.39
2018-10-19T20:13:48.252Z,62.40
2018-10-19T20:16:16.461Z,62.48
2018-10-19T20:18:44.561Z,62.52
2018-10-19T20:21:12.595Z,62.58
2018-10-19T20:23:40.753Z,62.58
2018-10-19T20:26:08.879Z,62.58
2018-10-19T20:28:36.918Z,62.76
2018-10-19T20:31:04.995Z,62.70
2018-10-19T20:33:33.180Z,62.65
2018-10-19T20:36:01.216Z,62.62
2018-10-19T20:38:29.288Z,62.62
2018-10-19T20:40:57.471Z,62.63
2018-10-19T20:43:25.451Z,62.64
2018-10-19T20:45:53.637Z,62.60
2018-10-19T20:48:21.853Z,62.55
2018-10-19T20:50:50.115Z,62.47
2018-10-19T20:53:18.202Z,62.29
2018-10-19T20:55:46.336Z,62.08
2018-10-19T20:58:15.306Z,61.90
2018-10-19T21:00:43.401Z,61.83
2018-10-19T21:03:11.461Z,61.75
2018-10-19T21:05:39.548Z,61.63
2018-10-19T21:08:07.685Z,61.59
2018-10-19T21:10:35.736Z,61.43
2018-10-19T21:13:03.823Z,61.24
2018-10-19T21:15:32.024Z,61.12
2018-10-19T21:18:00.102Z,61.04
2018-10-19T21:20:28.196Z,60.95
2018-10-19T21:22:56.339Z,60.79
2018-10-19T21:25:24.373Z,60.67
2018-10-19T21:27:52.455Z,60.59
2018-10-19T21:30:20.551Z,60.59
2018-10-19T21:32:48.633Z,60.63
2018-10-19T21:35:16.748Z,60.66
2018-10-19T21:37:44.879Z,60.80
2018-10-19T21:40:12.958Z,60.89
2018-10-19T21:42:41.059Z,60.90
2018-10-19T21:45:09.431Z,60.92
2018-10-19T21:47:37.563Z,60.90
2018-10-19T21:50:06.878Z,60.83
2018-10-19T21:52:34.900Z,60.82
2018-10-19T21:55:02.983Z,60.72
2018-10-19T21:57:31.075Z,60.70
2018-10-19T21:59:59.159Z,60.83
2018-10-19T22:02:27.374Z,60.79
2018-10-19T22:04:55.380Z,60.70
2018-10-19T22:07:23.530Z,60.65
2018-10-19T22:09:51.649Z,60.60
2018-10-19T22:12:19.751Z,60.66
2018-10-19T22:14:47.835Z,60.73
2018-10-19T22:17:15.959Z,60.88
2018-10-19T22:19:44.043Z,60.96
2018-10-19T22:22:12.139Z,61.19
2018-10-19T22:24:40.231Z,61.25
2018-10-19T22:27:08.317Z,61.29
2018-10-19T22:29:36.415Z,61.34
2018-10-19T22:32:04.572Z,61.27
2018-10-19T22:34:32.712Z,61.27
2018-10-19T22:37:00.812Z,61.36
2018-10-19T22:39:28.856Z,61.48
2018-10-19T22:41:56.939Z,61.63
2018-10-19T22:44:25.028Z,61.74
2018-10-19T22:46:53.129Z,61.80
2018-10-19T22:49:21.226Z,62.01
2018-10-19T22:51:49.413Z,62.23
2018-10-19T22:54:17.499Z,62.47
2018-10-19T22:56:45.826Z,62.63
2018-10-19T22:59:14.050Z,62.76
2018-10-19T23:01:41.972Z,62.70
2018-10-19T23:04:10.062Z,62.70
2018-10-19T23:06:38.222Z,62.77
2018-10-19T23:09:07.905Z,62.72
2018-10-19T23:11:36.024Z,62.73
2018-10-19T23:14:04.260Z,62.72
2018-10-19T23:16:32.358Z,62.69
2018-10-19T23:19:00.644Z,62.73
2018-10-19T23:21:28.733Z,62.75
2018-10-19T23:23:56.801Z,62.71
2018-10-19T23:26:25.219Z,62.67
2018-10-19T23:28:53.324Z,62.64
2018-10-19T23:31:21.467Z,62.61
2018-10-19T23:33:49.518Z,62.58
2018-10-19T23:36:17.599Z,62.62
2018-10-19T23:38:45.687Z,62.46
2018-10-19T23:41:13.847Z,62.45
2018-10-19T23:43:41.914Z,62.43
2018-10-19T23:46:09.965Z,62.31
2018-10-19T23:48:38.048Z,62.26
2018-10-19T23:51:06.628Z,62.17
2018-10-19T23:53:34.760Z,62.20
2018-10-19T23:56:02.849Z,62.28
2018-10-19T23:58:30.925Z,62.18
